This is the latest recevied weather packets stored in our database for station/object IZ1MEU-13. If no packets are shown the sender has not sent any weather packets the latest 10 day(s).
| Time | Temp. | Humidity | Pressure | Rain* | Wind** | Luminosity | Snow |
|---|---|---|---|---|---|---|---|
| 1777884574 | 15° C | 50% | 1020.3 hPa | - | - | - | - |
| 1777883371 | 14.44° C | 51% | 1020.4 hPa | - | - | - | - |
| 1777882167 | 14.44° C | 52% | 1020.2 hPa | - | - | - | - |
| 1777880963 | 13.33° C | 55% | 1020.1 hPa | - | - | - | - |
| 1777879759 | 12.78° C | 57% | 1019.9 hPa | - | - | - | - |
| 1777878556 | 12.22° C | 59% | 1019.7 hPa | - | - | - | - |
| 1777877352 | 12.22° C | 59% | 1019.5 hPa | - | - | - | - |
| 1777876148 | 11.67° C | 58% | 1019.4 hPa | - | - | - | - |
| 1777874944 | 11.67° C | 57% | 1019.1 hPa | - | - | - | - |
| 1777873741 | 11.67° C | 56% | 1019.1 hPa | - | - | - | - |
| 1777872537 | 11.11° C | 56% | 1019.1 hPa | - | - | - | - |
| 1777871333 | 11.11° C | 53% | 1019 hPa | - | - | - | - |
| 1777870129 | 11.11° C | 50% | 1018.9 hPa | - | - | - | - |
| 1777868925 | 11.11° C | 48% | 1018.9 hPa | - | - | - | - |
| 1777867722 | 11.67° C | 48% | 1018.8 hPa | - | - | - | - |
| 1777866518 | 11.67° C | 49% | 1018.7 hPa | - | - | - | - |
| 1777865314 | 11.67° C | 48% | 1018.6 hPa | - | - | - | - |
| 1777864110 | 11.11° C | 49% | 1018.8 hPa | - | - | - | - |
| 1777862907 | 11.67° C | 48% | 1018.9 hPa | - | - | - | - |
| 1777861703 | 11.67° C | 46% | 1018.9 hPa | - | - | - | - |
| 1777860499 | 11.67° C | 46% | 1019 hPa | - | - | - | - |
| 1777859295 | 11.11° C | 45% | 1018.9 hPa | - | - | - | - |
| 1777858092 | 11.67° C | 44% | 1018.8 hPa | - | - | - | - |
| 1777856888 | 11.67° C | 43% | 1019 hPa | - | - | - | - |
| 1777855684 | 11.67° C | 41% | 1019.1 hPa | - | - | - | - |
* Rain since midnight (hover to see other rain measurements)
** Current wind speed in m/s (hover to see current wind gust speed)